Atwater, California
Current Conditions -  °F | °C
As of 3:45 PM on Monday 24 Nov 2014 (Local Time) from KMER Reporting Station
Clear Clear  
Wind Chill: 63°   Ceiling: Unl
Heat Index: 63°   Visibility: 10mi
Dew Point: 46°   Wind: 0mph
Humidity: 55%   Direction: NA
Pressure: 30.36"   Gusts: NA
Location:  37.35°N, 120.6°W
Report Text: KMER 242345Z 00000KT 10SM SKC 17/08 A3036
Loading
Personal Weather Stations






























Interactive Weather Map New forecast layout! Learn more

10-Day Weather Forecast

Advertisements
Track Severe Weather on mobile